F/V Le Gamin — FQLG — position and weather

sailwx.info

Track history (hours):
 
Tides and Currents Weather Stations Pressure Air Temp Water Temp Dewpoint Dewpoint Depression Visibility Wind Speed Wind Dir Waves Ship Positions

F/V Le Gamin

Last reported at 2018-May-26 03:17 UTC. Time now 2018-May-27 03:01 UTC.
Position N 47°18' W 002°31'.

Length 15 m.

Type: Fishing. MMSI: 227876000.

Date/timePositionNaut miles runAvg speedWind from/ knotsBaromVisibWave heightAir tempDewpointWater temp
2018-May-26 03:17N 47°18' W 002°31'0 0.0
2018-May-26 02:59N 47°18' W 002°31'0 0.0
2018-May-26 02:29N 47°18' W 002°31'0 0.0
2018-May-26 01:59N 47°18' W 002°31'0 0.0
2018-May-26 01:29N 47°18' W 002°31'0 0.0
2018-May-26 00:59N 47°18' W 002°31'2 4.3
2018-May-26 00:30N 47°19' W 002°34'5 8.9
2018-May-26 00:00N 47°14' W 002°35'5 9.2
2018-May-25 23:30N 47°10' W 002°36'6 9.5
2018-May-25 22:53N 47°04' W 002°37'5 9.2
2018-May-25 22:20N 46°59' W 002°38'51 4.1
2018-May-25 09:55N 46°08' W 002°32'1 2.9
2018-May-25 09:30N 46°09' W 002°31'56 3.1
2018-May-24 15:13N 46°50' W 003°26'34 2.4
2018-May-24 01:01N 47°07' W 002°43'0 9.8
2018-May-24 01:00N 47°07' W 002°43'5 9.1
2018-May-24 00:31N 47°11' W 002°39'5 9.2
2018-May-24 00:00N 47°15' W 002°36'4 8.9
2018-May-23 23:31N 47°19' W 002°33'2 0.1
2018-May-23 01:25N 47°18' W 002°31'2 4.9
2018-May-23 01:00N 47°19' W 002°34'4 7.9
2018-May-23 00:29N 47°15' W 002°37'4 8.0
2018-May-22 23:59N 47°12' W 002°39'4 8.0
2018-May-22 23:30N 47°08' W 002°42'5 8.2
2018-May-22 22:55N 47°04' W 002°45'5 8.5
2018-May-22 22:22N 46°60' W 002°49'4 8.7
2018-May-22 21:53N 46°56' W 002°52'18 4.3
2018-May-22 17:36N 46°45' W 003°12'1 3.7
2018-May-22 17:25N 46°44' W 003°13'5 0.4
2018-May-22 06:26N 46°49' W 003°15'11 8.5
2018-May-22 05:12N 46°57' W 003°04'2 8.3
2018-May-22 04:57N 46°58' W 003°02'5 8.6
2018-May-22 04:25N 47°02' W 002°57'5 8.8
2018-May-22 03:48N 47°06' W 002°52'4 8.9
2018-May-22 03:24N 47°08' W 002°48'4 9.0
2018-May-22 02:55N 47°11' W 002°44'4 9.5
2018-May-22 02:29N 47°14' W 002°40'5 9.5
2018-May-22 02:00N 47°18' W 002°35'3 4.2
2018-May-22 01:18N 47°18' W 002°31'0 0.0
2018-May-22 00:59N 47°18' W 002°31'2 5.2
2018-May-22 00:30N 47°18' W 002°34'4 8.4
2018-May-22 00:00N 47°15' W 002°38'4 8.1
2018-May-21 23:30N 47°12' W 002°43'4 8.6
2018-May-21 22:59N 47°09' W 002°47'5 8.4
2018-May-21 22:26N 47°06' W 002°52'4 8.6
2018-May-21 22:00N 47°03' W 002°55'6 8.8
2018-May-21 21:19N 46°58' W 003°01'15 6.6
2018-May-21 18:59N 46°47' W 003°17'2 0.6
2018-May-21 15:25N 46°45' W 003°18'4 0.4
2018-May-21 06:53N 46°48' W 003°15'1 3.5
2018-May-21 06:30N 46°48' W 003°13'10 3.3
2018-May-21 03:32N 46°51' W 002°60'0 8.3
2018-May-21 03:30N 46°51' W 002°59'5 8.7
2018-May-21 02:59N 46°55' W 002°56'4 9.1
2018-May-21 02:30N 46°59' W 002°53'4 8.9
2018-May-21 02:00N 47°03' W 002°50'5 9.5
2018-May-21 01:30N 47°06' W 002°46'5 9.6
2018-May-21 01:01N 47°10' W 002°42'5 9.8
2018-May-21 00:30N 47°15' W 002°38'5 9.5
2018-May-21 00:00N 47°18' W 002°34'2 4.4
2018-May-20 23:29N 47°18' W 002°31'0 0.0
2018-May-19 06:15N 47°18' W 002°31'0 0.0
2018-May-19 06:00N 47°18' W 002°31'0 0.0
2018-May-19 05:30N 47°18' W 002°31'0 0.0
2018-May-19 04:39N 47°18' W 002°31'0 0.0
2018-May-19 04:06N 47°18' W 002°31'0 0.0
2018-May-19 04:00N 47°18' W 002°31'0 0.0
2018-May-19 03:30N 47°18' W 002°31'0 0.0
2018-May-19 02:54N 47°18' W 002°31'0 0.0
2018-May-19 02:30N 47°18' W 002°31'2 3.8
2018-May-19 01:56N 47°18' W 002°34'4 9.2
2018-May-19 01:30N 47°15' W 002°35'5 9.5
2018-May-19 00:59N 47°10' W 002°37'45 7.5
2018-May-18 19:01N 46°26' W 002°52'0 3.2
2018-May-18 19:00N 46°26' W 002°52'2 3.2
2018-May-18 18:27N 46°24' W 002°53'24 1.3
2018-May-18 00:18N 46°26' W 002°17'2 7.5
2018-May-18 00:00N 46°27' W 002°14'4 7.7
2018-May-17 23:30N 46°27' W 002°08'4 7.9
2018-May-17 23:00N 46°27' W 002°03'4 8.0
2018-May-17 22:30N 46°27' W 001°57'4 8.3
2018-May-17 22:00N 46°28' W 001°51'1 2.3
2018-May-17 21:30N 46°28' W 001°49'2 4.6
2018-May-17 20:58N 46°30' W 001°47'0 0.0
2018-May-17 20:31N 46°30' W 001°47'3 5.1
2018-May-17 20:00N 46°28' W 001°50'4 8.5
2018-May-17 19:30N 46°26' W 001°55'4 8.6
2018-May-17 19:00N 46°24' W 002°01'4 8.8
2018-May-17 18:31N 46°22' W 002°07'4 8.5
2018-May-17 18:00N 46°21' W 002°12'44 1.2
2018-May-16 04:16N 47°02' W 002°36'6 9.0
2018-May-16 03:37N 47°08' W 002°35'2 9.4
2018-May-16 03:27N 47°10' W 002°35'  
Track history (hours):
 
Tides and Currents Weather Stations Pressure Air Temp Water Temp Dewpoint Dewpoint Depression Visibility Wind Speed Wind Dir Waves Ship Positions

F/V Le Gamin

Last reported at 2018-May-26 03:17 UTC. Time now 2018-May-27 03:01 UTC.
Position N 47°18' W 002°31'.

Length 15 m.

Type: Fishing. MMSI: 227876000.

Date/timePositionNaut miles runAvg speedWind from/ knotsBaromVisibWave heightAir tempDewpointWater temp
2018-May-26 03:17N 47°18' W 002°31'0 0.0
2018-May-26 02:59N 47°18' W 002°31'0 0.0
2018-May-26 02:29N 47°18' W 002°31'0 0.0
2018-May-26 01:59N 47°18' W 002°31'0 0.0
2018-May-26 01:29N 47°18' W 002°31'0 0.0
2018-May-26 00:59N 47°18' W 002°31'2 4.3
2018-May-26 00:30N 47°19' W 002°34'5 8.9
2018-May-26 00:00N 47°14' W 002°35'5 9.2
2018-May-25 23:30N 47°10' W 002°36'6 9.5
2018-May-25 22:53N 47°04' W 002°37'5 9.2
2018-May-25 22:20N 46°59' W 002°38'51 4.1
2018-May-25 09:55N 46°08' W 002°32'1 2.9
2018-May-25 09:30N 46°09' W 002°31'56 3.1
2018-May-24 15:13N 46°50' W 003°26'34 2.4
2018-May-24 01:01N 47°07' W 002°43'0 9.8
2018-May-24 01:00N 47°07' W 002°43'5 9.1
2018-May-24 00:31N 47°11' W 002°39'5 9.2
2018-May-24 00:00N 47°15' W 002°36'4 8.9
2018-May-23 23:31N 47°19' W 002°33'2 0.1
2018-May-23 01:25N 47°18' W 002°31'2 4.9
2018-May-23 01:00N 47°19' W 002°34'4 7.9
2018-May-23 00:29N 47°15' W 002°37'4 8.0
2018-May-22 23:59N 47°12' W 002°39'4 8.0
2018-May-22 23:30N 47°08' W 002°42'5 8.2
2018-May-22 22:55N 47°04' W 002°45'5 8.5
2018-May-22 22:22N 46°60' W 002°49'4 8.7
2018-May-22 21:53N 46°56' W 002°52'18 4.3
2018-May-22 17:36N 46°45' W 003°12'1 3.7
2018-May-22 17:25N 46°44' W 003°13'5 0.4
2018-May-22 06:26N 46°49' W 003°15'11 8.5
2018-May-22 05:12N 46°57' W 003°04'2 8.3
2018-May-22 04:57N 46°58' W 003°02'5 8.6
2018-May-22 04:25N 47°02' W 002°57'5 8.8
2018-May-22 03:48N 47°06' W 002°52'4 8.9
2018-May-22 03:24N 47°08' W 002°48'4 9.0
2018-May-22 02:55N 47°11' W 002°44'4 9.5
2018-May-22 02:29N 47°14' W 002°40'5 9.5
2018-May-22 02:00N 47°18' W 002°35'3 4.2
2018-May-22 01:18N 47°18' W 002°31'0 0.0
2018-May-22 00:59N 47°18' W 002°31'2 5.2
2018-May-22 00:30N 47°18' W 002°34'4 8.4
2018-May-22 00:00N 47°15' W 002°38'4 8.1
2018-May-21 23:30N 47°12' W 002°43'4 8.6
2018-May-21 22:59N 47°09' W 002°47'5 8.4
2018-May-21 22:26N 47°06' W 002°52'4 8.6
2018-May-21 22:00N 47°03' W 002°55'6 8.8
2018-May-21 21:19N 46°58' W 003°01'15 6.6
2018-May-21 18:59N 46°47' W 003°17'2 0.6
2018-May-21 15:25N 46°45' W 003°18'4 0.4
2018-May-21 06:53N 46°48' W 003°15'1 3.5
2018-May-21 06:30N 46°48' W 003°13'10 3.3
2018-May-21 03:32N 46°51' W 002°60'0 8.3
2018-May-21 03:30N 46°51' W 002°59'5 8.7
2018-May-21 02:59N 46°55' W 002°56'4 9.1
2018-May-21 02:30N 46°59' W 002°53'4 8.9
2018-May-21 02:00N 47°03' W 002°50'5 9.5
2018-May-21 01:30N 47°06' W 002°46'5 9.6
2018-May-21 01:01N 47°10' W 002°42'5 9.8
2018-May-21 00:30N 47°15' W 002°38'5 9.5
2018-May-21 00:00N 47°18' W 002°34'2 4.4
2018-May-20 23:29N 47°18' W 002°31'0 0.0
2018-May-19 06:15N 47°18' W 002°31'0 0.0
2018-May-19 06:00N 47°18' W 002°31'0 0.0
2018-May-19 05:30N 47°18' W 002°31'0 0.0
2018-May-19 04:39N 47°18' W 002°31'0 0.0
2018-May-19 04:06N 47°18' W 002°31'0 0.0
2018-May-19 04:00N 47°18' W 002°31'0 0.0
2018-May-19 03:30N 47°18' W 002°31'0 0.0
2018-May-19 02:54N 47°18' W 002°31'0 0.0
2018-May-19 02:30N 47°18' W 002°31'2 3.8
2018-May-19 01:56N 47°18' W 002°34'4 9.2
2018-May-19 01:30N 47°15' W 002°35'5 9.5
2018-May-19 00:59N 47°10' W 002°37'45 7.5
2018-May-18 19:01N 46°26' W 002°52'0 3.2
2018-May-18 19:00N 46°26' W 002°52'2 3.2
2018-May-18 18:27N 46°24' W 002°53'24 1.3
2018-May-18 00:18N 46°26' W 002°17'2 7.5
2018-May-18 00:00N 46°27' W 002°14'4 7.7
2018-May-17 23:30N 46°27' W 002°08'4 7.9
2018-May-17 23:00N 46°27' W 002°03'4 8.0
2018-May-17 22:30N 46°27' W 001°57'4 8.3
2018-May-17 22:00N 46°28' W 001°51'1 2.3
2018-May-17 21:30N 46°28' W 001°49'2 4.6
2018-May-17 20:58N 46°30' W 001°47'0 0.0
2018-May-17 20:31N 46°30' W 001°47'3 5.1
2018-May-17 20:00N 46°28' W 001°50'4 8.5
2018-May-17 19:30N 46°26' W 001°55'4 8.6
2018-May-17 19:00N 46°24' W 002°01'4 8.8
2018-May-17 18:31N 46°22' W 002°07'4 8.5
2018-May-17 18:00N 46°21' W 002°12'44 1.2
2018-May-16 04:16N 47°02' W 002°36'6 9.0
2018-May-16 03:37N 47°08' W 002°35'2 9.4
2018-May-16 03:27N 47°10' W 002°35'  

Dump ship's entire track history